createdAt,value
2023-08-02T00:01:59.874Z,51.65
2023-08-02T00:04:31.554Z,50.88
2023-08-02T00:07:05.610Z,51.33
2023-08-02T00:09:37.877Z,50.72
2023-08-02T00:12:10.772Z,51.15
2023-08-02T00:14:41.524Z,50.25
2023-08-02T00:17:13.437Z,49.92
2023-08-02T00:19:48.967Z,51.40
2023-08-02T00:22:20.469Z,50.25
2023-08-02T00:24:51.508Z,53.63
2023-08-02T00:27:25.312Z,51.83
2023-08-02T00:29:56.405Z,50.25
2023-08-02T00:32:27.686Z,52.53
2023-08-02T00:34:59.052Z,52.07
2023-08-02T00:37:33.950Z,54.40
2023-08-02T00:40:06.745Z,55.95
2023-08-02T00:42:41.899Z,52.25
2023-08-02T00:45:13.307Z,52.53
2023-08-02T00:47:43.830Z,55.55
2023-08-02T00:50:14.532Z,58.08
2023-08-02T00:52:45.169Z,56.38
2023-08-02T00:55:15.860Z,55.35
2023-08-02T00:57:46.711Z,54.20
2023-08-02T01:00:17.508Z,58.08
2023-08-02T01:02:48.549Z,54.72
2023-08-02T01:05:20.388Z,56.80
2023-08-02T01:08:01.778Z,56.70
2023-08-02T01:10:48.587Z,52.88
2023-08-02T01:13:21.786Z,55.35
2023-08-02T01:15:52.596Z,58.53
2023-08-02T01:18:23.747Z,56.58
2023-08-02T01:20:54.820Z,58.28
2023-08-02T01:23:25.989Z,55.22
2023-08-02T01:26:02.935Z,55.95
2023-08-02T01:28:40.480Z,54.50
2023-08-02T01:31:14.180Z,54.25
2023-08-02T01:33:56.584Z,58.00
2023-08-02T01:38:58.794Z,58.83
2023-08-02T01:41:29.630Z,56.75
2023-08-02T01:44:04.477Z,56.17
2023-08-02T01:46:35.588Z,60.17
2023-08-02T01:49:06.892Z,60.30
2023-08-02T01:51:38.256Z,59.63
2023-08-02T01:54:10.067Z,62.38
2023-08-02T01:56:42.574Z,63.22
2023-08-02T01:59:14.975Z,62.53
2023-08-02T02:01:45.973Z,64.25
2023-08-02T02:04:17.040Z,64.55
2023-08-02T02:06:48.442Z,65.32
2023-08-02T02:09:19.983Z,66.95
2023-08-02T02:11:51.963Z,66.13
2023-08-02T02:14:26.723Z,65.75
2023-08-02T02:16:57.766Z,69.13
2023-08-02T02:19:28.875Z,67.22
2023-08-02T02:21:59.853Z,68.95
2023-08-02T02:24:31.095Z,68.63
2023-08-02T02:27:02.117Z,67.50
2023-08-02T02:29:33.086Z,69.82
2023-08-02T02:32:03.751Z,69.53
2023-08-02T02:34:34.693Z,66.32
2023-08-02T02:37:05.452Z,66.93
2023-08-02T02:39:36.397Z,67.55
2023-08-02T02:42:07.780Z,69.10
2023-08-02T02:44:45.891Z,68.95
2023-08-02T02:47:17.077Z,68.28
2023-08-02T02:49:49.586Z,69.15
2023-08-02T02:52:20.378Z,63.63
2023-08-02T02:54:51.290Z,59.97
2023-08-02T02:57:21.902Z,60.97
2023-08-02T02:59:53.719Z,58.92
2023-08-02T03:04:55.525Z,48.28
2023-08-02T03:07:26.136Z,48.25
2023-08-02T03:09:56.931Z,51.80
2023-08-02T03:12:27.595Z,51.28
2023-08-02T03:14:58.694Z,51.05
2023-08-02T03:17:30.307Z,49.45
2023-08-02T03:20:01.225Z,43.75
2023-08-02T03:22:32.104Z,42.35
2023-08-02T03:25:02.973Z,39.30
2023-08-02T03:27:33.728Z,40.53
2023-08-02T03:30:08.116Z,38.65
2023-08-02T03:32:39.182Z,37.53
2023-08-02T03:35:10.235Z,34.47
2023-08-02T03:37:40.957Z,30.13
2023-08-02T03:40:12.771Z,29.75
2023-08-02T03:42:44.074Z,27.67
2023-08-02T03:45:14.931Z,28.60
2023-08-02T03:47:45.687Z,28.50
2023-08-02T03:50:16.830Z,25.92
2023-08-02T03:52:48.438Z,27.25
2023-08-02T03:55:19.680Z,25.65
2023-08-02T03:57:50.511Z,27.90
2023-08-02T04:00:21.638Z,25.13
2023-08-02T04:02:53.115Z,28.58
2023-08-02T04:05:24.646Z,27.63
2023-08-02T04:07:56.067Z,24.75
2023-08-02T04:10:27.718Z,22.23
2023-08-02T04:12:58.779Z,25.75
2023-08-02T04:15:29.979Z,22.25
2023-08-02T04:18:01.754Z,12.05
2023-08-02T04:20:33.783Z,11.75
2023-08-02T04:23:04.670Z,9.98
2023-08-02T04:25:35.524Z,11.30
2023-08-02T04:28:06.589Z,9.73
2023-08-02T04:30:37.963Z,10.05
2023-08-02T04:33:09.080Z,11.75
2023-08-02T04:35:40.342Z,9.35
2023-08-02T04:38:12.112Z,11.13
2023-08-02T04:40:42.986Z,9.98
2023-08-02T04:43:13.306Z,11.48
2023-08-02T04:45:43.871Z,9.90
2023-08-02T04:48:14.335Z,10.75
2023-08-02T04:50:46.313Z,11.15
2023-08-02T04:53:16.899Z,9.77
2023-08-02T04:55:48.540Z,9.52
2023-08-02T04:58:19.094Z,8.05
2023-08-02T05:00:49.686Z,9.63
2023-08-02T05:03:20.292Z,8.10
2023-08-02T05:05:52.296Z,9.35
2023-08-02T05:08:22.825Z,8.30
2023-08-02T05:10:53.434Z,9.65
2023-08-02T05:13:26.067Z,8.25
2023-08-02T05:15:58.835Z,7.43
2023-08-02T05:18:29.451Z,8.20
2023-08-02T05:21:03.982Z,8.65
2023-08-02T05:23:43.278Z,10.00
2023-08-02T05:26:15.514Z,8.23
2023-08-02T05:28:46.006Z,9.10
2023-08-02T05:31:17.887Z,8.75
2023-08-02T05:33:50.921Z,7.45
2023-08-02T05:36:21.651Z,8.60
2023-08-02T05:38:52.337Z,7.60
2023-08-02T05:41:22.802Z,9.27
2023-08-02T05:43:56.269Z,9.18
2023-08-02T05:46:26.602Z,8.73
2023-08-02T05:48:57.076Z,8.98
2023-08-02T05:51:28.001Z,8.00
2023-08-02T05:53:58.572Z,7.78
2023-08-02T05:56:35.603Z,8.05
2023-08-02T06:02:34.275Z,9.65
2023-08-02T06:05:22.891Z,8.10
2023-08-02T06:10:59.076Z,8.57
2023-08-02T06:13:31.710Z,7.85
2023-08-02T06:16:02.161Z,6.97
2023-08-02T06:18:33.108Z,7.82
2023-08-02T06:21:03.533Z,7.85
2023-08-02T06:23:33.913Z,7.68
2023-08-02T06:26:04.626Z,7.53
2023-08-02T06:28:35.439Z,7.63
2023-08-02T06:31:08.416Z,9.30
2023-08-02T06:33:41.945Z,9.95
2023-08-02T06:36:13.323Z,9.20
2023-08-02T06:38:44.359Z,9.18
2023-08-02T06:41:15.239Z,8.70
2023-08-02T06:43:45.841Z,8.98
2023-08-02T06:46:41.274Z,9.20
2023-08-02T06:49:30.530Z,8.02
2023-08-02T06:52:05.960Z,9.45
2023-08-02T06:54:38.825Z,8.18
2023-08-02T06:57:18.003Z,8.18
2023-08-02T06:59:59.115Z,8.65
2023-08-02T07:02:38.409Z,9.55
2023-08-02T07:05:10.925Z,8.07
2023-08-02T07:07:43.864Z,8.90
2023-08-02T07:10:20.462Z,9.02
2023-08-02T07:12:57.571Z,8.77
2023-08-02T07:15:30.141Z,8.25
2023-08-02T07:18:07.156Z,10.20
2023-08-02T07:20:37.871Z,9.70
2023-08-02T07:23:08.316Z,9.45
2023-08-02T07:25:39.188Z,10.70
2023-08-02T07:28:09.742Z,10.60
2023-08-02T07:30:44.139Z,10.93
2023-08-02T07:33:18.082Z,11.63
2023-08-02T07:35:49.415Z,11.32
2023-08-02T07:38:20.109Z,10.82
2023-08-02T07:40:50.899Z,11.63
2023-08-02T07:43:35.228Z,12.60
2023-08-02T07:46:18.127Z,10.60
2023-08-02T07:48:49.059Z,9.80
2023-08-02T07:51:20.085Z,10.73
2023-08-02T07:53:52.432Z,9.55
2023-08-02T07:56:23.941Z,11.00
2023-08-02T07:58:54.283Z,11.85
2023-08-02T08:01:24.916Z,10.50
2023-08-02T08:03:55.675Z,11.30
2023-08-02T08:06:29.183Z,11.40
2023-08-02T08:08:59.818Z,12.45
2023-08-02T08:11:31.634Z,11.15
2023-08-02T08:16:35.375Z,12.93
2023-08-02T08:19:06.076Z,12.23
2023-08-02T08:21:40.746Z,11.57
2023-08-02T08:24:12.858Z,11.25
2023-08-02T08:26:43.653Z,10.82
2023-08-02T08:29:14.548Z,10.68
2023-08-02T08:31:45.831Z,10.85
2023-08-02T08:34:16.624Z,10.65
2023-08-02T08:36:50.476Z,11.30
2023-08-02T08:39:22.019Z,14.52
2023-08-02T08:44:51.955Z,14.48
2023-08-02T08:47:23.492Z,12.85
2023-08-02T08:49:54.847Z,13.57
2023-08-02T08:52:25.474Z,12.23
2023-08-02T08:54:56.439Z,13.35
2023-08-02T08:57:27.630Z,13.80
2023-08-02T08:59:59.434Z,15.52
2023-08-02T09:02:32.141Z,16.17
2023-08-02T09:05:08.031Z,18.45
2023-08-02T09:07:38.549Z,20.23
2023-08-02T09:10:09.831Z,20.25
2023-08-02T09:12:49.406Z,20.63
2023-08-02T09:15:20.588Z,19.67
2023-08-02T09:18:00.560Z,19.65
2023-08-02T09:20:33.989Z,20.13
2023-08-02T09:23:22.058Z,23.80
2023-08-02T09:26:25.141Z,28.33
2023-08-02T09:29:06.416Z,31.33
2023-08-02T09:31:42.162Z,29.63
2023-08-02T09:34:12.916Z,33.20
2023-08-02T09:36:43.607Z,33.10
2023-08-02T09:39:19.466Z,33.47
2023-08-02T09:41:58.893Z,30.25
2023-08-02T09:44:31.376Z,29.75
2023-08-02T09:47:12.129Z,31.40
2023-08-02T09:49:42.689Z,29.23
2023-08-02T09:52:13.699Z,29.10
2023-08-02T09:54:44.212Z,27.30
2023-08-02T09:57:14.925Z,25.83
2023-08-02T09:59:48.520Z,23.52
2023-08-02T10:02:20.626Z,24.13
2023-08-02T10:04:52.759Z,23.55
2023-08-02T10:07:24.208Z,21.52
2023-08-02T10:10:01.149Z,19.90
2023-08-02T10:12:55.361Z,16.73
2023-08-02T10:15:36.567Z,16.90
2023-08-02T10:18:08.774Z,18.20
2023-08-02T10:20:46.507Z,18.10
2023-08-02T10:23:24.536Z,16.20
2023-08-02T10:25:56.442Z,16.65
2023-08-02T10:28:28.003Z,22.17
2023-08-02T10:30:58.985Z,42.67
2023-08-02T10:33:31.168Z,24.63
2023-08-02T10:36:10.001Z,20.92
2023-08-02T10:38:55.458Z,16.00
2023-08-02T10:41:32.872Z,18.15
2023-08-02T10:44:25.286Z,18.13
2023-08-02T10:47:38.671Z,16.02
2023-08-02T10:50:10.355Z,16.92
2023-08-02T10:52:45.008Z,14.68
2023-08-02T10:55:21.409Z,15.32
2023-08-02T10:57:58.072Z,15.07
2023-08-02T11:00:34.627Z,17.88
2023-08-02T11:03:08.283Z,16.98
2023-08-02T11:05:46.315Z,17.70
2023-08-02T11:08:17.038Z,15.88
2023-08-02T11:10:57.376Z,14.40
2023-08-02T11:13:43.390Z,14.82
2023-08-02T11:16:15.647Z,12.23
2023-08-02T11:18:47.581Z,11.55
2023-08-02T11:21:18.035Z,13.67
2023-08-02T11:26:26.829Z,12.35
2023-08-02T11:28:57.392Z,10.73
2023-08-02T11:31:31.351Z,11.73
2023-08-02T11:34:01.921Z,12.65
2023-08-02T11:36:57.237Z,13.00
2023-08-02T11:39:29.435Z,14.50
2023-08-02T11:42:07.532Z,12.15
2023-08-02T11:44:39.328Z,13.55
2023-08-02T11:47:12.784Z,13.60
2023-08-02T11:49:59.021Z,13.20
2023-08-02T11:52:35.041Z,12.93
2023-08-02T11:55:05.912Z,14.23
2023-08-02T11:57:36.833Z,17.87
2023-08-02T12:00:11.817Z,15.38
2023-08-02T12:02:42.395Z,17.42
2023-08-02T12:05:22.229Z,13.75
2023-08-02T12:07:53.250Z,12.77
2023-08-02T12:10:31.428Z,10.77
2023-08-02T12:13:09.552Z,10.60
2023-08-02T12:15:40.854Z,10.48
2023-08-02T12:18:11.728Z,11.43
2023-08-02T12:20:45.268Z,10.23
2023-08-02T12:23:32.827Z,10.13
2023-08-02T12:26:06.176Z,12.32
2023-08-02T12:28:50.579Z,11.07
2023-08-02T12:31:26.049Z,12.57
2023-08-02T12:33:57.299Z,12.00
2023-08-02T12:36:31.704Z,12.82
2023-08-02T12:39:02.447Z,12.18
2023-08-02T12:41:33.322Z,13.25
2023-08-02T12:44:06.027Z,14.98
2023-08-02T12:46:37.365Z,14.40
2023-08-02T12:49:08.240Z,15.00
2023-08-02T12:51:41.197Z,13.93
2023-08-02T12:54:12.142Z,17.02
2023-08-02T12:56:42.962Z,16.92
2023-08-02T12:59:13.872Z,14.98
2023-08-02T13:01:47.429Z,14.88
2023-08-02T13:04:20.417Z,15.15
2023-08-02T13:06:55.969Z,15.05
2023-08-02T13:09:27.641Z,16.73
2023-08-02T13:12:07.694Z,17.47
2023-08-02T13:14:42.205Z,20.33
2023-08-02T13:17:15.820Z,23.25
2023-08-02T13:19:46.608Z,21.40
2023-08-02T13:22:18.053Z,22.73
2023-08-02T13:24:49.549Z,23.80
2023-08-02T13:27:19.872Z,26.60
2023-08-02T13:29:50.641Z,33.38
2023-08-02T13:32:21.860Z,32.90
2023-08-02T13:34:52.461Z,33.45
2023-08-02T13:37:23.147Z,21.45
2023-08-02T13:39:53.863Z,12.93
2023-08-02T13:42:27.305Z,10.25
2023-08-02T13:44:58.998Z,8.38
2023-08-02T13:47:29.802Z,8.55
2023-08-02T13:50:00.351Z,9.65
2023-08-02T13:52:31.210Z,9.30
2023-08-02T13:55:02.057Z,10.88
2023-08-02T13:57:32.763Z,9.48
2023-08-02T14:00:03.561Z,9.10
2023-08-02T14:02:34.658Z,8.80
2023-08-02T14:05:06.780Z,8.45
2023-08-02T14:07:38.434Z,6.55
2023-08-02T14:10:09.656Z,7.30
2023-08-02T14:12:43.221Z,6.57
2023-08-02T14:15:19.799Z,6.32
2023-08-02T14:17:50.492Z,6.30
2023-08-02T14:20:24.528Z,6.07
2023-08-02T14:23:10.947Z,5.93
2023-08-02T14:25:41.561Z,6.05
2023-08-02T14:28:15.790Z,4.72
2023-08-02T14:30:47.047Z,5.30
2023-08-02T14:33:26.594Z,6.90
2023-08-02T14:35:57.846Z,7.72
2023-08-02T14:38:34.413Z,7.30
2023-08-02T14:41:05.078Z,7.82
2023-08-02T14:43:39.259Z,7.00
2023-08-02T14:46:10.890Z,8.27
2023-08-02T14:48:41.707Z,8.50
2023-08-02T14:51:12.806Z,9.25
2023-08-02T14:53:44.681Z,9.32
2023-08-02T14:56:15.997Z,8.27
2023-08-02T14:58:46.408Z,8.52
2023-08-02T15:01:17.240Z,8.85
2023-08-02T15:03:49.285Z,7.80
2023-08-02T15:06:21.786Z,7.60
2023-08-02T15:08:52.396Z,6.97
2023-08-02T15:11:23.166Z,7.68
2023-08-02T15:13:53.888Z,8.73
2023-08-02T15:16:24.947Z,8.10
2023-08-02T15:18:56.154Z,8.43
2023-08-02T15:21:26.745Z,8.75
2023-08-02T15:23:57.371Z,9.80
2023-08-02T15:26:28.213Z,10.48
2023-08-02T15:28:59.978Z,11.43
2023-08-02T15:31:32.710Z,10.32
2023-08-02T15:34:03.566Z,10.45
2023-08-02T15:36:34.459Z,13.90
2023-08-02T15:39:06.158Z,25.73
2023-08-02T15:41:36.559Z,24.55
2023-08-02T15:44:07.846Z,24.23
2023-08-02T15:46:38.663Z,26.27
2023-08-02T15:49:13.804Z,21.92
2023-08-02T15:51:44.407Z,22.25
2023-08-02T15:54:16.526Z,11.10
2023-08-02T15:59:20.866Z,9.80
2023-08-02T16:01:52.185Z,9.68
2023-08-02T16:04:23.127Z,8.35
2023-08-02T16:06:56.994Z,8.52
2023-08-02T16:09:30.979Z,7.70
2023-08-02T16:12:01.412Z,8.93
2023-08-02T16:14:32.199Z,7.65
2023-08-02T16:17:02.728Z,8.32
2023-08-02T16:19:34.386Z,8.18
2023-08-02T16:22:05.135Z,7.93
2023-08-02T16:24:35.756Z,9.75
2023-08-02T16:27:06.550Z,8.65
2023-08-02T16:29:37.182Z,9.05
2023-08-02T16:32:08.041Z,9.68
2023-08-02T16:34:38.842Z,9.45
2023-08-02T16:37:09.661Z,10.98
2023-08-02T16:39:41.439Z,9.73
2023-08-02T16:42:12.534Z,11.18
2023-08-02T16:44:43.388Z,12.20
2023-08-02T16:47:13.824Z,13.48
2023-08-02T16:49:44.741Z,12.60
2023-08-02T16:52:15.105Z,14.80
2023-08-02T16:54:46.103Z,16.17
2023-08-02T16:57:16.803Z,15.45
2023-08-02T16:59:47.718Z,11.35
2023-08-02T17:02:18.279Z,10.55
2023-08-02T17:04:49.009Z,10.73
2023-08-02T17:07:19.641Z,10.65
2023-08-02T17:09:50.450Z,11.02
2023-08-02T17:12:21.166Z,9.70
2023-08-02T17:14:53.151Z,9.45
2023-08-02T17:17:23.678Z,9.25
2023-08-02T17:19:54.918Z,9.30
2023-08-02T17:22:25.456Z,12.30
2023-08-02T17:24:56.821Z,11.02
2023-08-02T17:27:27.193Z,9.35
2023-08-02T17:29:58.308Z,10.00
2023-08-02T17:32:28.798Z,10.65
2023-08-02T17:34:59.950Z,9.77
2023-08-02T17:37:30.327Z,10.32
2023-08-02T17:40:01.338Z,10.40
2023-08-02T17:42:31.729Z,12.85
2023-08-02T17:45:02.219Z,12.55
2023-08-02T17:47:32.691Z,13.20
2023-08-02T17:50:03.460Z,18.55
2023-08-02T17:52:33.943Z,22.60
2023-08-02T17:55:04.675Z,24.42
2023-08-02T17:57:35.414Z,30.60
2023-08-02T18:00:08.380Z,31.80
2023-08-02T18:02:42.263Z,38.53
2023-08-02T18:05:13.115Z,39.50
2023-08-02T18:07:43.844Z,33.85
2023-08-02T18:10:16.024Z,32.75
2023-08-02T18:12:46.439Z,32.50
2023-08-02T18:15:20.128Z,35.25
2023-08-02T18:17:50.681Z,36.45
2023-08-02T18:20:21.472Z,34.20
2023-08-02T18:22:51.834Z,23.48
2023-08-02T18:25:22.414Z,18.92
2023-08-02T18:27:53.741Z,17.70
2023-08-02T18:30:24.561Z,14.38
2023-08-02T18:32:56.122Z,14.43
2023-08-02T18:35:27.170Z,13.75
2023-08-02T18:37:57.634Z,14.20
2023-08-02T18:40:28.385Z,14.70
2023-08-02T18:42:58.886Z,14.52
2023-08-02T18:45:30.544Z,14.80
2023-08-02T18:48:01.232Z,15.25
2023-08-02T18:50:49.497Z,16.23
2023-08-02T18:53:20.375Z,20.38
2023-08-02T18:55:51.148Z,22.95
2023-08-02T18:58:22.119Z,23.83
2023-08-02T19:00:55.008Z,23.77
2023-08-02T19:03:26.871Z,20.58
2023-08-02T19:06:02.377Z,20.83
2023-08-02T19:08:45.857Z,19.38
2023-08-02T19:11:28.060Z,15.48
2023-08-02T19:13:58.956Z,14.70
2023-08-02T19:16:33.250Z,14.00
2023-08-02T19:19:05.549Z,14.70
2023-08-02T19:21:37.945Z,15.32
2023-08-02T19:24:11.540Z,14.07
2023-08-02T19:26:42.387Z,13.60
2023-08-02T19:29:20.311Z,13.02
2023-08-02T19:31:51.554Z,12.60
2023-08-02T19:34:23.971Z,12.63
2023-08-02T19:36:55.749Z,13.77
2023-08-02T19:39:41.098Z,11.98
2023-08-02T19:42:16.073Z,13.23
2023-08-02T19:44:53.571Z,11.98
2023-08-02T19:47:31.611Z,13.07
2023-08-02T19:50:02.977Z,12.07
2023-08-02T19:52:34.292Z,13.30
2023-08-02T19:55:08.986Z,12.73
2023-08-02T19:57:45.548Z,11.75
2023-08-02T20:00:21.286Z,12.57
2023-08-02T20:02:52.838Z,12.23
2023-08-02T20:05:48.717Z,11.83
2023-08-02T20:08:23.704Z,12.40
2023-08-02T20:10:57.675Z,11.60
2023-08-02T20:13:40.350Z,11.38
2023-08-02T20:16:16.586Z,11.95
2023-08-02T20:18:50.465Z,11.57
2023-08-02T20:21:23.522Z,11.57
2023-08-02T20:24:07.404Z,11.48
2023-08-02T20:26:38.535Z,11.60
2023-08-02T20:29:09.261Z,10.95
2023-08-02T20:31:43.783Z,11.65
2023-08-02T20:34:15.670Z,9.55
2023-08-02T20:36:46.755Z,10.90
2023-08-02T20:39:19.396Z,9.00
2023-08-02T20:41:51.640Z,8.43
2023-08-02T20:44:28.569Z,9.45
2023-08-02T20:46:59.888Z,11.35
2023-08-02T20:49:33.487Z,11.98
2023-08-02T20:52:04.014Z,12.73
2023-08-02T20:54:35.145Z,11.80
2023-08-02T20:57:06.376Z,9.23
2023-08-02T20:59:39.834Z,9.73
2023-08-02T21:02:21.682Z,9.40
2023-08-02T21:04:52.941Z,11.02
2023-08-02T21:07:30.133Z,10.57
2023-08-02T21:10:00.787Z,11.90
2023-08-02T21:12:31.521Z,11.15
2023-08-02T21:15:02.066Z,14.95
2023-08-02T21:17:32.499Z,17.17
2023-08-02T21:20:27.069Z,26.65
2023-08-02T21:22:57.795Z,31.38
2023-08-02T21:25:28.391Z,37.63
2023-08-02T21:27:58.755Z,31.98
2023-08-02T21:30:29.735Z,25.48
2023-08-02T21:33:00.219Z,18.98
2023-08-02T21:35:32.567Z,13.98
2023-08-02T21:40:33.192Z,10.43
2023-08-02T21:43:03.655Z,11.45
2023-08-02T21:45:34.375Z,11.13
2023-08-02T21:48:08.741Z,10.52
2023-08-02T21:50:39.438Z,10.23
2023-08-02T21:53:12.336Z,10.23
2023-08-02T21:55:43.052Z,10.43
2023-08-02T21:58:21.256Z,10.25
2023-08-02T22:00:55.113Z,10.10
2023-08-02T22:03:26.291Z,11.23
2023-08-02T22:06:04.215Z,11.38
2023-08-02T22:30:24.133Z,26.23
2023-08-02T22:33:14.923Z,28.00
2023-08-02T22:35:45.446Z,26.88
2023-08-02T22:38:15.875Z,26.70
2023-08-02T22:40:47.760Z,25.60
2023-08-02T22:43:18.015Z,23.48
2023-08-02T22:45:48.430Z,22.45
2023-08-02T22:50:56.045Z,22.50
2023-08-02T22:53:26.955Z,21.08
2023-08-02T22:55:58.509Z,22.70
2023-08-02T22:58:29.122Z,21.67
2023-08-02T23:00:59.368Z,21.40
2023-08-02T23:03:46.152Z,19.40
2023-08-02T23:06:28.356Z,19.95
2023-08-02T23:08:59.480Z,19.55
2023-08-02T23:11:30.884Z,20.15
2023-08-02T23:14:01.079Z,18.57
2023-08-02T23:16:31.441Z,18.90
2023-08-02T23:19:04.856Z,19.10
2023-08-02T23:21:38.377Z,18.30
2023-08-02T23:24:14.717Z,20.05
2023-08-02T23:26:44.882Z,22.00
2023-08-02T23:29:15.320Z,21.42
2023-08-02T23:31:46.923Z,23.23
2023-08-02T23:34:17.615Z,23.50
2023-08-02T23:36:47.772Z,25.92
2023-08-02T23:39:18.392Z,25.02
2023-08-02T23:41:48.600Z,25.83
2023-08-02T23:44:18.892Z,26.08
2023-08-02T23:46:49.466Z,27.85
2023-08-02T23:49:19.796Z,27.20
2023-08-02T23:51:50.002Z,28.10
2023-08-02T23:54:20.368Z,30.70
2023-08-02T23:56:50.536Z,31.42
2023-08-02T23:59:21.117Z,31.67
